createdAt,value
2023-02-28T00:00:05.447Z,1020.79
2023-02-28T00:00:35.768Z,1020.79
2023-02-28T00:01:06.601Z,1020.69
2023-02-28T00:01:37.585Z,1020.69
2023-02-28T00:02:09.112Z,1020.59
2023-02-28T00:02:39.829Z,1020.59
2023-02-28T00:03:10.671Z,1020.79
2023-02-28T00:03:41.539Z,1020.79
2023-02-28T00:04:12.473Z,1020.69
2023-02-28T00:04:43.507Z,1020.69
2023-02-28T00:05:15.006Z,1020.89
2023-02-28T00:05:45.822Z,1020.89
2023-02-28T00:06:16.588Z,1020.69
2023-02-28T00:06:47.743Z,1020.69
2023-02-28T00:07:18.731Z,1020.49
2023-02-28T00:07:50.043Z,1020.49
2023-02-28T00:08:20.662Z,1020.49
2023-02-28T00:08:51.447Z,1020.69
2023-02-28T00:09:22.505Z,1020.69
2023-02-28T00:09:53.593Z,1020.59
2023-02-28T00:10:25.159Z,1020.59
2023-02-28T00:10:56.244Z,1020.59
2023-02-28T00:11:29.806Z,1020.59
2023-02-28T00:11:57.593Z,1020.69
2023-02-28T00:12:28.837Z,1020.69
2023-02-28T00:12:59.860Z,1020.49
2023-02-28T00:13:30.824Z,1020.49
2023-02-28T00:14:01.646Z,1020.59
2023-02-28T00:14:32.672Z,1020.59
2023-02-28T00:15:04.550Z,1020.59
2023-02-28T00:15:36.011Z,1020.59
2023-02-28T00:16:05.773Z,1020.49
2023-02-28T00:16:37.384Z,1020.49
2023-02-28T00:17:07.841Z,1020.59
2023-02-28T00:17:38.757Z,1020.59
2023-02-28T00:18:09.948Z,1020.59
2023-02-28T00:18:40.808Z,1020.59
2023-02-28T00:19:11.541Z,1020.59
2023-02-28T00:19:42.575Z,1020.59
2023-02-28T00:20:13.843Z,1020.49
2023-02-28T00:20:44.741Z,1020.49
2023-02-28T00:21:15.678Z,1020.69
2023-02-28T00:21:46.593Z,1020.69
2023-02-28T00:22:17.420Z,1020.39
2023-02-28T00:22:48.634Z,1020.59
2023-02-28T00:23:19.656Z,1020.59
2023-02-28T00:23:50.817Z,1020.49
2023-02-28T00:24:22.025Z,1020.49
2023-02-28T00:24:53.123Z,1020.49
2023-02-28T00:25:24.542Z,1020.49
2023-02-28T00:25:54.455Z,1020.49
2023-02-28T00:26:25.440Z,1020.49
2023-02-28T00:26:56.798Z,1020.39
2023-02-28T00:27:27.855Z,1020.39
2023-02-28T00:27:59.149Z,1020.59
2023-02-28T00:28:30.191Z,1020.59
2023-02-28T00:29:00.492Z,1020.49
2023-02-28T00:29:31.589Z,1020.49
2023-02-28T00:30:03.367Z,1020.59
2023-02-28T00:30:33.612Z,1020.59
2023-02-28T00:31:04.866Z,1020.49
2023-02-28T00:31:35.637Z,1020.49
2023-02-28T00:32:06.642Z,1020.49
2023-02-28T00:32:37.862Z,1020.49
2023-02-28T00:33:08.849Z,1020.49
2023-02-28T00:33:39.698Z,1020.49
2023-02-28T00:34:10.567Z,1020.49
2023-02-28T00:34:41.684Z,1020.49
2023-02-28T00:35:12.835Z,1020.49
2023-02-28T00:35:43.642Z,1020.49
2023-02-28T00:36:14.708Z,1020.49
2023-02-28T00:36:45.498Z,1020.49
2023-02-28T00:37:16.663Z,1020.69
2023-02-28T00:37:48.067Z,1020.69
2023-02-28T00:38:18.681Z,1020.39
2023-02-28T00:38:49.983Z,1020.59
2023-02-28T00:39:20.716Z,1020.59
2023-02-28T00:39:51.819Z,1020.49
2023-02-28T00:40:25.143Z,1020.49
2023-02-28T00:40:53.733Z,1020.59
2023-02-28T00:41:25.204Z,1020.59
2023-02-28T00:41:55.556Z,1020.59
2023-02-28T00:42:26.836Z,1020.59
2023-02-28T00:42:57.632Z,1020.59
2023-02-28T00:43:28.823Z,1020.59
2023-02-28T00:43:59.923Z,1020.49
2023-02-28T00:44:30.563Z,1020.49
2023-02-28T00:45:02.938Z,1020.49
2023-02-28T00:45:32.787Z,1020.49
2023-02-28T00:46:03.634Z,1020.49
2023-02-28T00:46:34.599Z,1020.49
2023-02-28T00:47:06.694Z,1020.49
2023-02-28T00:47:36.746Z,1020.49
2023-02-28T00:48:08.775Z,1020.59
2023-02-28T00:48:38.864Z,1020.59
2023-02-28T00:49:09.716Z,1020.49
2023-02-28T00:49:40.749Z,1020.49
2023-02-28T00:50:12.398Z,1020.39
2023-02-28T00:50:43.142Z,1020.39
2023-02-28T00:51:13.901Z,1020.49
2023-02-28T00:51:44.723Z,1020.49
2023-02-28T00:52:15.561Z,1020.28
2023-02-28T00:52:46.870Z,1020.28
2023-02-28T00:53:17.837Z,1020.39
2023-02-28T00:53:48.711Z,1020.39
2023-02-28T00:54:19.997Z,1020.39
2023-02-28T00:54:50.663Z,1020.69
2023-02-28T00:55:22.537Z,1020.69
2023-02-28T00:55:53.046Z,1020.59
2023-02-28T00:56:23.883Z,1020.59
2023-02-28T00:56:54.906Z,1020.59
2023-02-28T00:57:25.972Z,1020.59
2023-02-28T00:57:57.029Z,1020.59
2023-02-28T00:58:27.960Z,1020.59
2023-02-28T00:58:58.997Z,1020.49
2023-02-28T00:59:29.570Z,1020.49
2023-02-28T01:00:02.479Z,1020.59
2023-02-28T01:00:32.052Z,1020.59
2023-02-28T01:01:02.788Z,1020.39
2023-02-28T01:01:33.682Z,1020.39
2023-02-28T01:02:04.619Z,1020.59
2023-02-28T01:02:35.866Z,1020.59
2023-02-28T01:03:06.718Z,1020.39
2023-02-28T01:03:37.855Z,1020.39
2023-02-28T01:04:09.029Z,1020.49
2023-02-28T01:04:40.032Z,1020.49
2023-02-28T01:05:11.416Z,1020.59
2023-02-28T01:05:41.675Z,1020.59
2023-02-28T01:06:12.897Z,1020.49
2023-02-28T01:06:43.693Z,1020.49
2023-02-28T01:07:14.797Z,1020.39
2023-02-28T01:07:45.689Z,1020.39
2023-02-28T01:08:16.691Z,1020.28
2023-02-28T01:08:47.825Z,1020.28
2023-02-28T01:09:18.842Z,1020.49
2023-02-28T01:09:49.980Z,1020.28
2023-02-28T01:10:21.070Z,1020.28
2023-02-28T01:10:51.905Z,1020.39
2023-02-28T01:11:22.645Z,1020.39
2023-02-28T01:11:53.707Z,1020.59
2023-02-28T01:12:24.843Z,1020.59
2023-02-28T01:12:55.669Z,1020.39
2023-02-28T01:13:26.909Z,1020.39
2023-02-28T01:13:57.675Z,1020.39
2023-02-28T01:14:28.955Z,1020.39
2023-02-28T01:14:59.897Z,1020.49
2023-02-28T01:15:31.835Z,1020.49
2023-02-28T01:16:01.895Z,1020.22
2023-02-28T01:16:32.698Z,1020.22
2023-02-28T01:17:03.732Z,1020.59
2023-02-28T01:17:35.033Z,1020.59
2023-02-28T01:18:05.774Z,1020.49
2023-02-28T01:18:37.848Z,1020.49
2023-02-28T01:19:07.886Z,1020.28
2023-02-28T01:19:40.148Z,1020.28
2023-02-28T01:20:10.301Z,1020.89
2023-02-28T01:20:41.650Z,1020.89
2023-02-28T01:21:12.040Z,1020.49
2023-02-28T01:21:42.652Z,1020.49
2023-02-28T01:22:13.694Z,1020.39
2023-02-28T01:22:44.836Z,1020.39
2023-02-28T01:23:15.652Z,1020.39
2023-02-28T01:23:46.820Z,1020.39
2023-02-28T01:24:17.764Z,1020.28
2023-02-28T01:24:48.781Z,1020.49
2023-02-28T01:25:21.037Z,1020.49
2023-02-28T01:25:50.857Z,1020.28
2023-02-28T01:26:22.457Z,1020.28
2023-02-28T01:26:53.084Z,1020.49
2023-02-28T01:27:24.036Z,1020.49
2023-02-28T01:27:54.692Z,1020.49
2023-02-28T01:28:25.756Z,1020.49
2023-02-28T01:28:56.716Z,1020.28
2023-02-28T01:29:27.997Z,1020.28
2023-02-28T01:29:58.949Z,1020.49
2023-02-28T01:30:30.824Z,1020.49
2023-02-28T01:31:00.801Z,1020.28
2023-02-28T01:31:32.286Z,1020.28
2023-02-28T01:32:03.204Z,1020.39
2023-02-28T01:32:33.713Z,1020.39
2023-02-28T01:33:04.811Z,1020.28
2023-02-28T01:33:35.986Z,1020.28
2023-02-28T01:34:06.758Z,1020.59
2023-02-28T01:34:38.096Z,1020.59
2023-02-28T01:35:09.466Z,1020.59
2023-02-28T01:35:39.943Z,1020.59
2023-02-28T01:36:10.821Z,1020.39
2023-02-28T01:36:41.998Z,1020.39
2023-02-28T01:37:12.914Z,1020.22
2023-02-28T01:37:44.098Z,1020.22
2023-02-28T01:38:22.073Z,1020.28
2023-02-28T01:38:46.106Z,1020.28
2023-02-28T01:39:16.861Z,1020.49
2023-02-28T01:39:48.247Z,1020.49
2023-02-28T01:40:19.216Z,1020.28
2023-02-28T01:40:49.730Z,1020.49
2023-02-28T01:41:20.755Z,1020.49
2023-02-28T01:41:51.748Z,1020.39
2023-02-28T01:42:23.136Z,1020.39
2023-02-28T01:42:54.146Z,1020.49
2023-02-28T01:43:25.079Z,1020.49
2023-02-28T01:43:56.153Z,1020.39
2023-02-28T01:44:26.814Z,1020.39
2023-02-28T01:44:57.828Z,1020.22
2023-02-28T01:45:29.761Z,1020.22
2023-02-28T01:46:00.063Z,1020.49
2023-02-28T01:46:30.908Z,1020.49
2023-02-28T01:47:02.010Z,1020.49
2023-02-28T01:47:32.908Z,1020.49
2023-02-28T01:48:03.862Z,1020.49
2023-02-28T01:48:35.045Z,1020.49
2023-02-28T01:49:06.132Z,1020.28
2023-02-28T01:49:37.131Z,1020.28
2023-02-28T01:50:10.427Z,1020.39
2023-02-28T01:50:39.143Z,1020.39
2023-02-28T01:51:11.577Z,1020.39
2023-02-28T01:51:40.996Z,1020.39
2023-02-28T01:52:12.142Z,1020.49
2023-02-28T01:52:43.186Z,1020.49
2023-02-28T01:53:13.813Z,1020.28
2023-02-28T01:53:45.203Z,1020.28
2023-02-28T01:54:16.067Z,1020.28
2023-02-28T01:54:47.079Z,1020.28
2023-02-28T01:55:18.689Z,1020.39
2023-02-28T01:55:48.934Z,1020.39
2023-02-28T01:56:20.064Z,1020.39
2023-02-28T01:56:51.124Z,1020.28
2023-02-28T01:57:22.090Z,1020.28
2023-02-28T01:57:53.260Z,1020.22
2023-02-28T01:58:23.801Z,1020.22
2023-02-28T01:58:54.860Z,1020.22
2023-02-28T01:59:25.967Z,1020.22
2023-02-28T01:59:56.854Z,1020.22
2023-02-28T02:00:29.635Z,1020.22
2023-02-28T02:00:59.286Z,1020.22
2023-02-28T02:01:30.639Z,1020.22
2023-02-28T02:02:00.904Z,1020.11
2023-02-28T02:02:32.172Z,1020.11
2023-02-28T02:03:02.959Z,1020.22
2023-02-28T02:03:34.062Z,1020.22
2023-02-28T02:04:05.188Z,1020.11
2023-02-28T02:04:36.091Z,1020.11
2023-02-28T02:05:07.401Z,1020.01
2023-02-28T02:05:38.094Z,1020.01
2023-02-28T02:06:09.179Z,1020.22
2023-02-28T02:06:40.175Z,1020.22
2023-02-28T02:07:11.243Z,1020.11
2023-02-28T02:07:42.055Z,1020.11
2023-02-28T02:08:12.836Z,1020.28
2023-02-28T02:08:43.915Z,1020.28
2023-02-28T02:09:15.109Z,1020.11
2023-02-28T02:09:45.854Z,1020.11
2023-02-28T02:10:18.030Z,1020.11
2023-02-28T02:10:48.162Z,1020.11
2023-02-28T02:11:18.874Z,1020.22
2023-02-28T02:11:50.303Z,1020.11
2023-02-28T02:12:20.960Z,1020.11
2023-02-28T02:12:52.092Z,1020.11
2023-02-28T02:13:22.742Z,1020.11
2023-02-28T02:13:54.005Z,1019.91
2023-02-28T02:14:25.143Z,1019.91
2023-02-28T02:14:56.249Z,1020.22
2023-02-28T02:15:28.515Z,1020.22
2023-02-28T02:15:58.176Z,1020.28
2023-02-28T02:16:29.164Z,1020.28
2023-02-28T02:17:00.176Z,1020.01
2023-02-28T02:17:31.249Z,1020.01
2023-02-28T02:18:02.223Z,1020.01
2023-02-28T02:18:33.228Z,1020.01
2023-02-28T02:19:04.618Z,1019.91
2023-02-28T02:19:34.983Z,1019.91
2023-02-28T02:20:06.560Z,1020.22
2023-02-28T02:20:37.040Z,1020.22
2023-02-28T02:21:07.952Z,1020.01
2023-02-28T02:21:39.953Z,1020.01
2023-02-28T02:22:09.903Z,1020.11
2023-02-28T02:22:41.344Z,1020.11
2023-02-28T02:23:11.945Z,1020.11
2023-02-28T02:23:43.004Z,1020.11
2023-02-28T02:24:14.002Z,1019.91
2023-02-28T02:24:44.998Z,1019.91
2023-02-28T02:25:17.139Z,1020.01
2023-02-28T02:25:47.082Z,1020.01
2023-02-28T02:26:18.234Z,1020.22
2023-02-28T02:26:49.103Z,1020.11
2023-02-28T02:27:20.248Z,1020.11
2023-02-28T02:27:51.126Z,1020.01
2023-02-28T02:28:22.083Z,1020.01
2023-02-28T02:28:52.934Z,1019.91
2023-02-28T02:29:24.010Z,1019.91
2023-02-28T02:29:55.047Z,1020.11
2023-02-28T02:30:26.847Z,1020.11
2023-02-28T02:30:57.062Z,1019.91
2023-02-28T02:31:28.424Z,1019.91
2023-02-28T02:31:59.278Z,1020.11
2023-02-28T02:32:30.616Z,1020.11
2023-02-28T02:33:01.162Z,1020.01
2023-02-28T02:33:32.295Z,1020.01
2023-02-28T02:34:03.229Z,1020.11
2023-02-28T02:34:33.924Z,1020.11
2023-02-28T02:35:05.177Z,1020.11
2023-02-28T02:35:35.971Z,1020.11
2023-02-28T02:36:06.935Z,1020.22
2023-02-28T02:36:37.873Z,1020.22
2023-02-28T02:37:09.246Z,1019.91
2023-02-28T02:37:40.320Z,1019.91
2023-02-28T02:38:11.051Z,1020.01
2023-02-28T02:38:42.542Z,1020.01
2023-02-28T02:39:12.972Z,1020.11
2023-02-28T02:39:44.012Z,1020.11
2023-02-28T02:40:15.798Z,1020.01
2023-02-28T02:40:46.620Z,1020.01
2023-02-28T02:41:16.895Z,1020.11
2023-02-28T02:41:48.117Z,1020.11
2023-02-28T02:42:19.125Z,1020.22
2023-02-28T02:42:50.378Z,1020.22
2023-02-28T02:43:20.985Z,1020.22
2023-02-28T02:43:51.998Z,1020.28
2023-02-28T02:44:22.918Z,1020.28
2023-02-28T02:44:53.874Z,1020.01
2023-02-28T02:45:26.109Z,1020.01
2023-02-28T02:45:56.311Z,1020.11
2023-02-28T02:46:27.124Z,1020.11
2023-02-28T02:46:58.113Z,1020.11
2023-02-28T02:47:28.986Z,1020.11
2023-02-28T02:48:00.474Z,1020.11
2023-02-28T02:48:31.425Z,1020.11
2023-02-28T02:49:02.256Z,1020.28
2023-02-28T02:49:33.165Z,1020.28
2023-02-28T02:50:04.337Z,1020.22
2023-02-28T02:50:35.195Z,1020.22
2023-02-28T02:51:06.308Z,1020.01
2023-02-28T02:51:37.003Z,1020.01
2023-02-28T02:52:08.610Z,1019.91
2023-02-28T02:52:39.226Z,1019.91
2023-02-28T02:53:11.774Z,1020.11
2023-02-28T02:53:41.365Z,1020.11
2023-02-28T02:54:13.656Z,1020.11
2023-02-28T02:54:43.205Z,1020.11
2023-02-28T02:55:14.847Z,1019.91
2023-02-28T02:55:45.273Z,1019.91
2023-02-28T02:56:16.042Z,1020.01
2023-02-28T02:56:46.965Z,1020.01
2023-02-28T02:57:18.002Z,1020.01
2023-02-28T02:57:49.222Z,1020.22
2023-02-28T02:58:20.491Z,1020.22
2023-02-28T02:58:51.156Z,1020.01
2023-02-28T02:59:22.070Z,1020.01
2023-02-28T02:59:53.021Z,1020.01
2023-02-28T03:00:25.437Z,1020.01
2023-02-28T03:00:55.469Z,1019.71
2023-02-28T03:01:26.887Z,1019.71
2023-02-28T03:01:57.044Z,1020.11
2023-02-28T03:02:28.373Z,1020.11
2023-02-28T03:02:59.216Z,1020.01
2023-02-28T03:03:30.499Z,1020.01
2023-02-28T03:04:01.366Z,1020.01
2023-02-28T03:04:32.410Z,1020.01
2023-02-28T03:05:03.848Z,1020.01
2023-02-28T03:05:34.218Z,1020.01
2023-02-28T03:06:05.058Z,1020.11
2023-02-28T03:06:36.153Z,1020.11
2023-02-28T03:07:07.206Z,1020.01
2023-02-28T03:07:38.430Z,1020.01
2023-02-28T03:08:09.165Z,1020.11
2023-02-28T03:08:40.221Z,1020.11
2023-02-28T03:09:11.046Z,1019.91
2023-02-28T03:09:42.417Z,1019.91
2023-02-28T03:10:13.803Z,1020.22
2023-02-28T03:10:44.037Z,1020.22
2023-02-28T03:11:15.300Z,1020.11
2023-02-28T03:11:46.030Z,1020.11
2023-02-28T03:12:17.096Z,1020.22
2023-02-28T03:12:48.068Z,1020.22
2023-02-28T03:13:19.408Z,1020.28
2023-02-28T03:13:50.069Z,1020.11
2023-02-28T03:14:21.206Z,1020.11
2023-02-28T03:14:52.348Z,1020.01
2023-02-28T03:15:24.415Z,1020.01
2023-02-28T03:15:54.503Z,1020.28
2023-02-28T03:16:25.546Z,1020.28
2023-02-28T03:16:56.021Z,1020.11
2023-02-28T03:17:27.045Z,1020.11
2023-02-28T03:17:58.344Z,1020.22
2023-02-28T03:18:29.116Z,1020.22
2023-02-28T03:19:00.309Z,1020.11
2023-02-28T03:19:31.320Z,1020.11
2023-02-28T03:20:03.087Z,1020.11
2023-02-28T03:20:33.097Z,1020.11
2023-02-28T03:21:04.485Z,1020.11
2023-02-28T03:21:35.334Z,1020.11
2023-02-28T03:22:06.804Z,1020.01
2023-02-28T03:22:37.469Z,1020.01
2023-02-28T03:23:08.728Z,1020.01
2023-02-28T03:23:39.090Z,1020.01
2023-02-28T03:24:10.421Z,1020.28
2023-02-28T03:24:42.042Z,1020.28
2023-02-28T03:25:12.951Z,1020.01
2023-02-28T03:25:44.233Z,1020.01
2023-02-28T03:26:14.170Z,1020.01
2023-02-28T03:26:45.318Z,1020.01
2023-02-28T03:27:16.917Z,1020.01
2023-02-28T03:27:47.311Z,1020.01
2023-02-28T03:28:18.463Z,1020.28
2023-02-28T03:28:49.483Z,1020.01
2023-02-28T03:29:20.096Z,1020.01
2023-02-28T03:29:51.253Z,1020.22
2023-02-28T03:30:23.170Z,1020.22
2023-02-28T03:30:53.403Z,1020.22
2023-02-28T03:31:24.453Z,1020.22
2023-02-28T03:31:55.265Z,1020.28
2023-02-28T03:32:26.173Z,1020.28
2023-02-28T03:32:57.462Z,1020.22
2023-02-28T03:33:28.262Z,1020.22
2023-02-28T03:33:59.137Z,1020.11
2023-02-28T03:34:30.424Z,1020.11
2023-02-28T03:35:01.483Z,1020.11
2023-02-28T03:35:32.345Z,1020.11
2023-02-28T03:36:03.171Z,1020.22
2023-02-28T03:36:34.284Z,1020.22
2023-02-28T03:37:05.205Z,1020.01
2023-02-28T03:37:36.180Z,1020.01
2023-02-28T03:38:07.481Z,1020.28
2023-02-28T03:38:38.134Z,1020.28
2023-02-28T03:39:09.287Z,1020.11
2023-02-28T03:39:40.434Z,1020.11
2023-02-28T03:40:12.077Z,1020.28
2023-02-28T03:40:42.328Z,1020.28
2023-02-28T03:41:13.127Z,1020.22
2023-02-28T03:41:44.153Z,1020.22
2023-02-28T03:42:15.094Z,1020.28
2023-02-28T03:42:46.908Z,1020.28
2023-02-28T03:43:17.354Z,1020.01
2023-02-28T03:43:48.371Z,1020.01
2023-02-28T03:44:19.129Z,1020.22
2023-02-28T03:44:50.681Z,1020.28
2023-02-28T03:45:22.116Z,1020.28
2023-02-28T03:45:52.350Z,1020.11
2023-02-28T03:46:23.271Z,1020.11
2023-02-28T03:46:54.219Z,1020.01
2023-02-28T03:47:25.156Z,1020.01
2023-02-28T03:47:56.360Z,1020.28
2023-02-28T03:48:27.397Z,1020.28
2023-02-28T03:48:58.888Z,1020.22
2023-02-28T03:49:29.419Z,1020.22
2023-02-28T03:50:01.123Z,1020.28
2023-02-28T03:50:31.340Z,1020.28
2023-02-28T03:51:02.548Z,1020.49
2023-02-28T03:51:33.566Z,1020.49
2023-02-28T03:52:04.561Z,1020.39
2023-02-28T03:52:35.204Z,1020.39
2023-02-28T03:53:06.530Z,1020.22
2023-02-28T03:53:37.460Z,1020.22
2023-02-28T03:54:08.485Z,1020.22
2023-02-28T03:54:39.446Z,1020.22
2023-02-28T03:55:12.359Z,1020.39
2023-02-28T03:55:41.382Z,1020.39
2023-02-28T03:56:14.542Z,1020.28
2023-02-28T03:56:43.866Z,1020.28
2023-02-28T03:57:15.527Z,1020.11
2023-02-28T03:57:45.201Z,1020.11
2023-02-28T03:58:16.340Z,1020.11
2023-02-28T03:58:47.345Z,1020.11
2023-02-28T03:59:18.239Z,1020.22
2023-02-28T03:59:49.613Z,1020.11
2023-02-28T04:00:21.188Z,1020.11
2023-02-28T04:00:51.289Z,1020.11
2023-02-28T04:01:22.733Z,1020.11
2023-02-28T04:01:53.328Z,1020.28
2023-02-28T04:02:24.282Z,1020.28
2023-02-28T04:02:55.383Z,1020.11
2023-02-28T04:03:26.362Z,1020.11
2023-02-28T04:03:57.545Z,1020.39
2023-02-28T04:04:28.540Z,1020.39
2023-02-28T04:04:59.708Z,1020.39
2023-02-28T04:05:30.956Z,1020.39
2023-02-28T04:06:01.508Z,1020.39
2023-02-28T04:06:32.211Z,1020.39
2023-02-28T04:07:03.198Z,1020.39
2023-02-28T04:07:34.281Z,1020.39
2023-02-28T04:08:05.207Z,1020.28
2023-02-28T04:08:36.387Z,1020.28
2023-02-28T04:09:07.270Z,1020.11
2023-02-28T04:09:38.476Z,1020.11
2023-02-28T04:10:09.828Z,1020.39
2023-02-28T04:10:40.263Z,1020.39
2023-02-28T04:11:11.205Z,1020.28
2023-02-28T04:11:42.588Z,1020.28
2023-02-28T04:12:13.813Z,1020.28
2023-02-28T04:12:44.720Z,1020.28
2023-02-28T04:13:15.245Z,1020.28
2023-02-28T04:13:47.621Z,1020.28
2023-02-28T04:14:17.376Z,1020.39
2023-02-28T04:14:48.298Z,1020.39
2023-02-28T04:15:20.777Z,1020.39
2023-02-28T04:15:50.561Z,1020.28
2023-02-28T04:16:33.808Z,1020.28
2023-02-28T04:16:52.957Z,1020.22
2023-02-28T04:17:23.693Z,1020.22
2023-02-28T04:17:55.119Z,1020.49
2023-02-28T04:18:25.668Z,1020.49
2023-02-28T04:18:56.245Z,1020.28
2023-02-28T04:19:27.302Z,1020.28
2023-02-28T04:19:58.298Z,1020.28
2023-02-28T04:20:29.881Z,1020.28
2023-02-28T04:21:00.562Z,1020.28
2023-02-28T04:21:31.959Z,1020.28
2023-02-28T04:22:02.502Z,1020.28
2023-02-28T04:22:33.494Z,1020.28
2023-02-28T04:23:04.963Z,1020.28
2023-02-28T04:23:35.696Z,1020.28
2023-02-28T04:24:06.618Z,1020.39
2023-02-28T04:24:37.663Z,1020.39
2023-02-28T04:25:08.990Z,1020.49
2023-02-28T04:25:39.272Z,1020.49
2023-02-28T04:26:10.282Z,1020.28
2023-02-28T04:26:41.295Z,1020.28
2023-02-28T04:27:12.263Z,1020.39
2023-02-28T04:27:44.554Z,1020.39
2023-02-28T04:28:14.584Z,1020.39
2023-02-28T04:28:46.936Z,1020.39
2023-02-28T04:29:16.311Z,1020.28
2023-02-28T04:29:47.382Z,1020.28
2023-02-28T04:30:19.431Z,1020.39
2023-02-28T04:30:49.545Z,1020.28
2023-02-28T04:31:20.843Z,1020.28
2023-02-28T04:31:51.710Z,1020.39
2023-02-28T04:32:22.592Z,1020.39
2023-02-28T04:32:53.435Z,1020.39
2023-02-28T04:33:24.725Z,1020.39
2023-02-28T04:33:55.322Z,1020.28
2023-02-28T04:34:26.368Z,1020.28
2023-02-28T04:34:57.327Z,1020.49
2023-02-28T04:35:29.233Z,1020.49
2023-02-28T04:35:59.655Z,1020.39
2023-02-28T04:36:31.064Z,1020.39
2023-02-28T04:37:13.169Z,1020.49
2023-02-28T04:37:32.393Z,1020.49
2023-02-28T04:38:03.411Z,1020.39
2023-02-28T04:38:34.576Z,1020.39
2023-02-28T04:39:05.572Z,1020.39
2023-02-28T04:39:36.515Z,1020.39
2023-02-28T04:40:08.150Z,1020.49
2023-02-28T04:40:38.694Z,1020.49
2023-02-28T04:41:09.583Z,1020.49
2023-02-28T04:41:40.307Z,1020.49
2023-02-28T04:42:11.339Z,1020.28
2023-02-28T04:42:42.547Z,1020.28
2023-02-28T04:43:13.568Z,1020.59
2023-02-28T04:43:44.360Z,1020.59
2023-02-28T04:44:15.670Z,1020.39
2023-02-28T04:44:46.440Z,1020.39
2023-02-28T04:45:18.508Z,1020.22
2023-02-28T04:45:48.560Z,1020.22
2023-02-28T04:46:19.809Z,1020.39
2023-02-28T04:46:50.342Z,1020.22
2023-02-28T04:47:21.480Z,1020.22
2023-02-28T04:47:52.483Z,1020.22
2023-02-28T04:48:23.433Z,1020.22
2023-02-28T04:48:54.758Z,1020.22
2023-02-28T04:49:25.615Z,1020.22
2023-02-28T04:49:56.381Z,1020.01
2023-02-28T04:50:28.231Z,1020.01
2023-02-28T04:50:58.973Z,1020.28
2023-02-28T04:51:30.139Z,1020.28
2023-02-28T04:52:00.784Z,1020.22
2023-02-28T04:52:31.594Z,1020.22
2023-02-28T04:53:02.796Z,1020.28
2023-02-28T04:53:33.396Z,1020.28
2023-02-28T04:54:04.371Z,1020.28
2023-02-28T04:54:36.133Z,1020.28
2023-02-28T04:55:06.707Z,1020.22
2023-02-28T04:55:37.345Z,1020.22
2023-02-28T04:56:08.716Z,1020.59
2023-02-28T04:56:39.679Z,1020.59
2023-02-28T04:57:10.669Z,1020.39
2023-02-28T04:57:41.901Z,1020.39
2023-02-28T04:58:12.461Z,1020.28
2023-02-28T04:58:44.001Z,1020.28
2023-02-28T04:59:15.438Z,1020.39
2023-02-28T04:59:46.335Z,1020.39
2023-02-28T05:00:19.013Z,1020.28
2023-02-28T05:00:47.500Z,1020.28
2023-02-28T05:01:18.421Z,1020.22
2023-02-28T05:01:49.830Z,1020.49
2023-02-28T05:02:20.749Z,1020.49
2023-02-28T05:02:51.748Z,1020.28
2023-02-28T05:03:22.513Z,1020.28
2023-02-28T05:03:53.609Z,1020.28
2023-02-28T05:04:24.577Z,1020.28
2023-02-28T05:04:55.810Z,1020.28
2023-02-28T05:05:27.051Z,1020.28
2023-02-28T05:05:57.552Z,1020.59
2023-02-28T05:06:28.692Z,1020.59
2023-02-28T05:06:59.633Z,1020.39
2023-02-28T05:07:30.468Z,1020.39
2023-02-28T05:08:01.918Z,1020.39
2023-02-28T05:08:32.482Z,1020.39
2023-02-28T05:09:03.711Z,1020.39
2023-02-28T05:09:35.314Z,1020.39
2023-02-28T05:10:06.558Z,1020.28
2023-02-28T05:10:36.418Z,1020.28
2023-02-28T05:11:08.073Z,1020.59
2023-02-28T05:11:38.447Z,1020.59
2023-02-28T05:12:09.668Z,1020.39
2023-02-28T05:12:40.811Z,1020.39
2023-02-28T05:13:11.810Z,1020.22
2023-02-28T05:13:42.463Z,1020.22
2023-02-28T05:14:13.528Z,1020.11
2023-02-28T05:14:44.700Z,1020.11
2023-02-28T05:15:16.712Z,1020.39
2023-02-28T05:15:46.771Z,1020.39
2023-02-28T05:16:17.895Z,1020.28
2023-02-28T05:16:48.693Z,1020.28
2023-02-28T05:17:19.589Z,1020.39
2023-02-28T05:17:50.496Z,1020.39
2023-02-28T05:18:21.792Z,1020.39
2023-02-28T05:18:52.463Z,1020.39
2023-02-28T05:19:23.493Z,1020.39
2023-02-28T05:19:57.209Z,1020.28
2023-02-28T05:20:26.457Z,1020.28
2023-02-28T05:20:56.673Z,1020.79
2023-02-28T05:21:28.323Z,1020.79
2023-02-28T05:21:58.834Z,1020.28
2023-02-28T05:22:29.880Z,1020.28
2023-02-28T05:23:00.936Z,1020.28
2023-02-28T05:23:31.749Z,1020.28
2023-02-28T05:24:02.514Z,1020.49
2023-02-28T05:24:33.452Z,1020.49
2023-02-28T05:25:05.201Z,1020.59
2023-02-28T05:25:35.887Z,1020.59
2023-02-28T05:26:06.508Z,1020.49
2023-02-28T05:26:37.727Z,1020.49
2023-02-28T05:27:08.695Z,1020.39
2023-02-28T05:27:39.823Z,1020.39
2023-02-28T05:28:10.935Z,1020.22
2023-02-28T05:28:42.082Z,1020.22
2023-02-28T05:29:12.758Z,1020.49
2023-02-28T05:29:43.705Z,1020.49
2023-02-28T05:30:15.452Z,1020.49
2023-02-28T05:30:47.462Z,1020.49
2023-02-28T05:31:16.720Z,1020.69
2023-02-28T05:31:51.422Z,1020.49
2023-02-28T05:32:18.944Z,1020.49
2023-02-28T05:32:50.400Z,1020.39
2023-02-28T05:33:20.547Z,1020.39
2023-02-28T05:33:52.122Z,1020.49
2023-02-28T05:34:22.907Z,1020.49
2023-02-28T05:34:53.558Z,1020.49
2023-02-28T05:35:24.938Z,1020.49
2023-02-28T05:35:56.038Z,1020.69
2023-02-28T05:36:27.013Z,1020.69
2023-02-28T05:36:57.660Z,1020.69
2023-02-28T05:37:28.638Z,1020.69
2023-02-28T05:37:59.646Z,1020.59
2023-02-28T05:38:30.571Z,1020.59
2023-02-28T05:39:02.066Z,1020.69
2023-02-28T05:39:32.650Z,1020.69
2023-02-28T05:40:04.283Z,1020.59
2023-02-28T05:40:34.720Z,1020.59
2023-02-28T05:41:05.755Z,1020.59
2023-02-28T05:41:36.934Z,1020.59
2023-02-28T05:42:07.598Z,1020.49
2023-02-28T05:42:38.944Z,1020.49
2023-02-28T05:43:09.901Z,1020.49
2023-02-28T05:43:40.799Z,1020.49
2023-02-28T05:44:12.121Z,1020.69
2023-02-28T05:44:42.850Z,1020.69
2023-02-28T05:45:15.887Z,1020.49
2023-02-28T05:45:45.055Z,1020.49
2023-02-28T05:46:15.563Z,1020.69
2023-02-28T05:46:46.950Z,1020.69
2023-02-28T05:47:17.591Z,1020.49
2023-02-28T05:47:48.584Z,1020.49
2023-02-28T05:48:19.915Z,1020.49
2023-02-28T05:48:51.097Z,1020.59
2023-02-28T05:49:21.830Z,1020.59
2023-02-28T05:49:52.568Z,1020.49
2023-02-28T05:50:24.801Z,1020.49
2023-02-28T05:50:54.889Z,1020.49
2023-02-28T05:51:25.558Z,1020.49
2023-02-28T05:51:56.613Z,1020.59
2023-02-28T05:52:27.628Z,1020.59
2023-02-28T05:52:58.880Z,1020.49
2023-02-28T05:53:30.009Z,1020.49
2023-02-28T05:54:00.789Z,1020.69
2023-02-28T05:54:31.809Z,1020.69
2023-02-28T05:55:03.119Z,1020.59
2023-02-28T05:55:33.951Z,1020.59
2023-02-28T05:56:04.809Z,1020.69
2023-02-28T05:56:35.757Z,1020.69
2023-02-28T05:57:15.491Z,1020.69
2023-02-28T05:57:37.945Z,1020.69
2023-02-28T05:58:08.924Z,1020.49
2023-02-28T05:58:39.769Z,1020.49
2023-02-28T05:59:10.664Z,1020.59
2023-02-28T05:59:41.735Z,1020.59
2023-02-28T06:00:13.893Z,1020.59
2023-02-28T06:00:43.818Z,1020.59
2023-02-28T06:01:14.987Z,1020.69
2023-02-28T06:01:46.000Z,1020.69
2023-02-28T06:02:18.333Z,1020.79
2023-02-28T06:02:47.739Z,1020.79
2023-02-28T06:03:19.962Z,1020.89
2023-02-28T06:03:49.718Z,1020.69
2023-02-28T06:04:30.633Z,1020.69
2023-02-28T06:04:51.753Z,1020.89
2023-02-28T06:05:23.174Z,1020.89
2023-02-28T06:05:53.933Z,1020.79
2023-02-28T06:06:25.021Z,1020.79
2023-02-28T06:06:55.673Z,1020.59
2023-02-28T06:07:26.617Z,1020.59
2023-02-28T06:07:57.597Z,1020.69
2023-02-28T06:08:29.582Z,1020.69
2023-02-28T06:08:59.665Z,1020.79
2023-02-28T06:09:31.131Z,1020.79
2023-02-28T06:10:01.926Z,1020.69
2023-02-28T06:10:32.916Z,1020.69
2023-02-28T06:11:03.790Z,1020.89
2023-02-28T06:11:35.017Z,1020.89
2023-02-28T06:12:06.281Z,1020.79
2023-02-28T06:12:37.103Z,1020.79
2023-02-28T06:13:07.911Z,1020.69
2023-02-28T06:13:38.890Z,1020.69
2023-02-28T06:14:10.033Z,1020.69
2023-02-28T06:14:41.046Z,1020.69